createdAt,value
2022-10-16T00:01:51.590Z,100717.47
2022-10-16T00:04:20.617Z,100723.84
2022-10-16T00:06:49.620Z,100726.09
2022-10-16T00:09:18.658Z,100723.53
2022-10-16T00:11:47.666Z,100720.91
2022-10-16T00:14:18.589Z,100729.63
2022-10-16T00:16:47.565Z,100727.13
2022-10-16T00:19:16.750Z,100725.19
2022-10-16T00:21:45.713Z,100729.63
2022-10-16T00:24:14.683Z,100733.31
2022-10-16T00:26:44.249Z,100735.00
2022-10-16T00:29:13.439Z,100731.97
2022-10-16T00:31:43.723Z,100726.25
2022-10-16T00:34:12.720Z,100732.34
2022-10-16T00:36:41.683Z,100733.41
2022-10-16T00:39:10.702Z,100729.63
2022-10-16T00:41:39.649Z,100737.00
2022-10-16T00:44:38.413Z,100748.59
2022-10-16T00:47:11.574Z,100738.00
2022-10-16T00:49:40.702Z,100739.88
2022-10-16T00:52:09.828Z,100744.00
2022-10-16T00:54:39.043Z,100742.81
2022-10-16T00:57:09.041Z,100740.66
2022-10-16T00:59:40.759Z,100739.63
2022-10-16T01:02:14.089Z,100737.16
2022-10-16T01:04:47.895Z,100751.84
2022-10-16T01:07:26.698Z,100752.66
2022-10-16T01:10:04.970Z,100753.44
2022-10-16T01:12:45.486Z,100747.56
2022-10-16T01:15:24.977Z,100759.59
2022-10-16T01:18:01.892Z,100763.50
2022-10-16T01:20:35.088Z,100761.25
2022-10-16T01:23:29.554Z,100767.28
2022-10-16T01:26:12.709Z,100766.06
2022-10-16T01:28:50.091Z,100766.84
2022-10-16T01:31:24.455Z,100761.31
2022-10-16T01:33:58.769Z,100766.22
2022-10-16T01:36:32.997Z,100765.63
2022-10-16T01:39:04.737Z,100759.53
2022-10-16T01:41:37.284Z,100763.34
2022-10-16T01:44:11.674Z,100765.91
2022-10-16T01:46:44.409Z,100770.44
2022-10-16T01:49:14.830Z,100764.09
2022-10-16T01:51:47.143Z,100770.94
2022-10-16T01:54:18.456Z,100760.56
2022-10-16T01:56:50.651Z,100770.41
2022-10-16T01:59:24.843Z,100772.53
2022-10-16T02:02:00.485Z,100773.19
2022-10-16T02:04:33.297Z,100777.38
2022-10-16T02:07:02.911Z,100770.56
2022-10-16T02:09:34.203Z,100776.00
2022-10-16T02:12:08.346Z,100774.25
2022-10-16T02:14:40.187Z,100776.78
2022-10-16T02:17:14.180Z,100769.38
2022-10-16T02:19:44.830Z,100776.03
2022-10-16T02:22:20.286Z,100772.00
2022-10-16T02:24:55.877Z,100770.44
2022-10-16T02:27:34.129Z,100781.47
2022-10-16T02:30:09.600Z,100777.22
2022-10-16T02:32:41.978Z,100786.94
2022-10-16T02:35:12.155Z,100769.72
2022-10-16T02:37:42.550Z,100774.88
2022-10-16T02:40:12.414Z,100780.78
2022-10-16T02:42:42.400Z,100779.56
2022-10-16T02:45:13.947Z,100774.88
2022-10-16T02:47:42.894Z,100780.44
2022-10-16T02:50:12.254Z,100785.41
2022-10-16T02:52:41.326Z,100773.38
2022-10-16T02:55:10.551Z,100784.13
2022-10-16T02:57:41.228Z,100788.13
2022-10-16T03:00:14.367Z,100787.50
2022-10-16T03:02:43.715Z,100784.94
2022-10-16T03:05:13.174Z,100787.00
2022-10-16T03:07:42.541Z,100789.50
2022-10-16T03:10:11.570Z,100781.59
2022-10-16T03:12:40.469Z,100782.44
2022-10-16T03:15:10.719Z,100775.28
2022-10-16T03:17:41.015Z,100769.53
2022-10-16T03:20:10.730Z,100772.53
2022-10-16T03:22:39.710Z,100771.31
2022-10-16T03:25:09.509Z,100778.81
2022-10-16T03:27:38.555Z,100773.53
2022-10-16T03:30:08.573Z,100780.06
2022-10-16T03:32:37.585Z,100773.28
2022-10-16T03:35:08.895Z,100776.34
2022-10-16T03:37:38.144Z,100781.19
2022-10-16T03:40:08.315Z,100773.13
2022-10-16T03:42:37.651Z,100784.91
2022-10-16T03:45:07.624Z,100781.72
2022-10-16T03:47:36.553Z,100784.78
2022-10-16T03:50:08.483Z,100782.56
2022-10-16T03:52:37.466Z,100782.69
2022-10-16T03:55:07.267Z,100786.00
2022-10-16T03:57:36.258Z,100790.44
2022-10-16T04:00:05.838Z,100788.59
2022-10-16T04:02:41.829Z,100783.75
2022-10-16T04:05:12.409Z,100790.69
2022-10-16T04:07:41.348Z,100798.34
2022-10-16T04:10:11.071Z,100815.03
2022-10-16T04:12:39.974Z,100815.03
2022-10-16T04:15:09.880Z,100826.84
2022-10-16T04:17:38.812Z,100821.53
2022-10-16T04:20:08.729Z,100833.69
2022-10-16T04:22:38.978Z,100827.47
2022-10-16T04:25:08.588Z,100835.53
2022-10-16T04:27:39.978Z,100830.97
2022-10-16T04:30:11.949Z,100833.84
2022-10-16T04:32:40.832Z,100828.59
2022-10-16T04:35:10.909Z,100826.53
2022-10-16T04:37:41.228Z,100828.06
2022-10-16T04:40:10.742Z,100834.28
2022-10-16T04:42:39.862Z,100835.94
2022-10-16T04:45:12.093Z,100837.41
2022-10-16T04:47:43.799Z,100843.69
2022-10-16T04:50:12.731Z,100849.09
2022-10-16T04:52:42.991Z,100849.66
2022-10-16T04:55:11.917Z,100853.06
2022-10-16T04:57:40.827Z,100848.81
2022-10-16T05:00:11.184Z,100844.50
2022-10-16T05:02:40.134Z,100845.34
2022-10-16T05:05:09.691Z,100858.66
2022-10-16T05:07:38.612Z,100847.19
2022-10-16T05:10:09.413Z,100845.09
2022-10-16T05:12:38.354Z,100858.91
2022-10-16T05:15:08.498Z,100847.03
2022-10-16T05:17:41.158Z,100853.81
2022-10-16T05:20:13.502Z,100856.59
2022-10-16T05:22:42.420Z,100866.72
2022-10-16T05:25:13.072Z,100874.06
2022-10-16T05:27:41.993Z,100862.69
2022-10-16T05:30:12.526Z,100874.06
2022-10-16T05:32:41.769Z,100856.75
2022-10-16T05:35:12.679Z,100859.66
2022-10-16T05:37:41.898Z,100866.28
2022-10-16T05:40:13.859Z,100861.88
2022-10-16T05:42:43.159Z,100868.06
2022-10-16T05:45:13.451Z,100882.06
2022-10-16T05:47:42.724Z,100883.00
2022-10-16T05:50:11.651Z,100886.34
2022-10-16T05:52:40.622Z,100880.13
2022-10-16T05:55:10.462Z,100879.84
2022-10-16T05:57:40.721Z,100874.88
2022-10-16T06:00:11.023Z,100883.00
2022-10-16T06:02:43.007Z,100880.81
2022-10-16T06:05:11.990Z,100885.78
2022-10-16T06:07:40.864Z,100890.06
2022-10-16T06:10:10.787Z,100891.59
2022-10-16T06:12:41.036Z,100897.38
2022-10-16T06:15:10.655Z,100888.66
2022-10-16T06:17:39.590Z,100887.69
2022-10-16T06:20:09.193Z,100886.03
2022-10-16T06:22:38.065Z,100892.03
2022-10-16T06:25:07.766Z,100900.75
2022-10-16T06:27:36.686Z,100888.03
2022-10-16T06:30:08.457Z,100895.22
2022-10-16T06:32:37.378Z,100903.66
2022-10-16T06:35:06.779Z,100905.88
2022-10-16T06:37:35.671Z,100899.94
2022-10-16T06:40:05.285Z,100914.56
2022-10-16T06:42:34.227Z,100918.31
2022-10-16T06:45:03.162Z,100919.97
2022-10-16T06:47:33.424Z,100917.19
2022-10-16T06:50:02.485Z,100924.13
2022-10-16T06:52:31.721Z,100925.78
2022-10-16T06:55:00.744Z,100943.78
2022-10-16T06:57:29.639Z,100950.03
2022-10-16T06:59:58.566Z,100952.41
2022-10-16T07:02:27.771Z,100947.28
2022-10-16T07:04:58.788Z,100949.75
2022-10-16T07:07:27.675Z,100943.50
2022-10-16T07:09:56.770Z,100949.56
2022-10-16T07:12:25.890Z,100962.44
2022-10-16T07:14:55.714Z,100956.19
2022-10-16T07:17:24.685Z,100958.19
2022-10-16T07:19:54.321Z,100956.19
2022-10-16T07:22:24.859Z,100961.19
2022-10-16T07:24:53.929Z,100962.50
2022-10-16T07:27:24.980Z,100973.91
2022-10-16T07:29:53.971Z,100969.56
2022-10-16T07:32:23.113Z,100976.44
2022-10-16T07:34:52.242Z,100981.94
2022-10-16T07:37:21.289Z,100991.22
2022-10-16T07:39:51.554Z,100984.66
2022-10-16T07:42:21.043Z,100994.63
2022-10-16T07:44:49.936Z,100993.50
2022-10-16T07:47:18.891Z,100986.41
2022-10-16T07:49:47.778Z,100996.22
2022-10-16T07:52:16.726Z,100988.84
2022-10-16T07:54:45.701Z,100996.16
2022-10-16T07:57:20.150Z,100999.25
2022-10-16T07:59:49.159Z,101002.72
2022-10-16T08:02:18.158Z,100998.59
2022-10-16T08:04:49.290Z,101000.94
2022-10-16T08:07:18.325Z,101007.50
2022-10-16T08:09:50.630Z,101020.25
2022-10-16T08:12:20.963Z,101028.22
2022-10-16T08:14:49.936Z,101006.13
2022-10-16T08:17:19.005Z,101019.72
2022-10-16T08:19:48.360Z,101021.22
2022-10-16T08:22:17.378Z,101016.09
2022-10-16T08:24:46.395Z,101018.38
2022-10-16T08:27:15.504Z,101014.59
2022-10-16T08:29:45.808Z,101028.84
2022-10-16T08:32:14.904Z,101023.75
2022-10-16T08:34:43.842Z,101018.72
2022-10-16T08:37:14.677Z,101016.31
2022-10-16T08:39:43.620Z,101016.97
2022-10-16T08:42:36.573Z,101023.28
2022-10-16T08:45:22.870Z,101030.94
2022-10-16T08:48:02.535Z,101024.69
2022-10-16T08:50:34.815Z,101023.84
2022-10-16T08:53:05.916Z,101030.97
2022-10-16T08:55:40.479Z,101031.00
2022-10-16T08:58:14.990Z,101035.97
2022-10-16T09:00:48.666Z,101039.31
2022-10-16T09:03:29.576Z,101046.06
2022-10-16T09:06:28.747Z,101050.28
2022-10-16T09:09:10.607Z,101046.06
2022-10-16T09:11:51.049Z,101058.28
2022-10-16T09:14:42.539Z,101061.25
2022-10-16T09:17:45.189Z,101064.31
2022-10-16T09:20:28.979Z,101060.41
2022-10-16T09:23:12.469Z,101073.16
2022-10-16T09:25:44.858Z,101054.13
2022-10-16T09:28:13.982Z,101067.34
2022-10-16T09:30:42.993Z,101069.19
2022-10-16T09:33:15.028Z,101075.50
2022-10-16T09:35:46.185Z,101067.28
2022-10-16T09:38:25.187Z,101080.78
2022-10-16T09:40:59.378Z,101073.84
2022-10-16T09:43:41.103Z,101063.72
2022-10-16T09:46:23.066Z,101063.75
2022-10-16T09:48:55.639Z,101071.84
2022-10-16T09:51:27.268Z,101062.41
2022-10-16T09:54:02.540Z,101060.53
2022-10-16T09:56:34.265Z,101074.66
2022-10-16T09:59:05.332Z,101088.22
2022-10-16T10:01:40.541Z,101097.34
2022-10-16T10:04:12.197Z,101090.41
2022-10-16T10:06:47.355Z,101100.34
2022-10-16T10:09:23.194Z,101106.81
2022-10-16T10:11:57.173Z,101111.28
2022-10-16T10:14:30.016Z,101117.56
2022-10-16T10:17:15.065Z,101111.63
2022-10-16T10:19:52.544Z,101116.09
2022-10-16T10:22:32.243Z,101107.78
2022-10-16T10:25:26.566Z,101114.63
2022-10-16T10:28:10.110Z,101112.25
2022-10-16T10:30:44.817Z,101121.88
2022-10-16T10:33:26.834Z,101120.56
2022-10-16T10:36:09.598Z,101117.13
2022-10-16T10:38:45.766Z,101129.75
2022-10-16T10:41:43.147Z,101119.22
2022-10-16T10:44:20.484Z,101124.50
2022-10-16T10:46:56.932Z,101133.22
2022-10-16T10:49:43.288Z,101130.69
2022-10-16T10:52:37.540Z,101137.47
2022-10-16T10:55:21.330Z,101131.09
2022-10-16T10:58:07.861Z,101139.22
2022-10-16T11:00:50.698Z,101137.28
2022-10-16T11:03:42.883Z,101129.16
2022-10-16T11:06:17.414Z,101131.72
2022-10-16T11:08:53.767Z,101133.97
2022-10-16T11:11:32.665Z,101133.22
2022-10-16T11:14:06.561Z,101145.94
2022-10-16T11:16:41.007Z,101148.16
2022-10-16T11:19:20.746Z,101147.03
2022-10-16T11:21:58.640Z,101157.38
2022-10-16T11:24:42.945Z,101149.16
2022-10-16T11:27:17.894Z,101155.28
2022-10-16T11:29:55.449Z,101162.44
2022-10-16T11:32:31.054Z,101154.63
2022-10-16T11:35:10.068Z,101148.06
2022-10-16T11:37:44.092Z,101173.91
2022-10-16T11:40:24.548Z,101175.91
2022-10-16T11:42:59.863Z,101174.59
2022-10-16T11:45:36.302Z,101186.19
2022-10-16T11:48:16.961Z,101171.75
2022-10-16T11:50:52.244Z,101180.75
2022-10-16T11:53:39.555Z,101179.41
2022-10-16T11:56:10.129Z,101192.41
2022-10-16T11:58:51.091Z,101172.00
2022-10-16T12:01:26.266Z,101185.38
2022-10-16T12:04:16.571Z,101190.91
2022-10-16T12:06:49.566Z,101188.59
2022-10-16T12:09:24.828Z,101191.34
2022-10-16T12:11:55.632Z,101200.41
2022-10-16T12:15:11.661Z,101198.16
2022-10-16T12:17:37.212Z,101199.66
2022-10-16T12:20:24.474Z,101219.03
2022-10-16T12:22:56.529Z,101217.75
2022-10-16T12:25:29.400Z,101231.00
2022-10-16T12:28:04.990Z,101225.03
2022-10-16T12:30:36.300Z,101231.66
2022-10-16T12:33:07.848Z,101234.59
2022-10-16T12:35:45.973Z,101242.41
2022-10-16T12:38:20.387Z,101246.88
2022-10-16T12:40:59.865Z,101239.13
2022-10-16T12:43:39.141Z,101233.09
2022-10-16T12:46:24.837Z,101235.72
2022-10-16T12:49:08.699Z,101240.94
2022-10-16T12:51:39.748Z,101254.41
2022-10-16T12:54:16.481Z,101253.19
2022-10-16T12:56:57.586Z,101252.66
2022-10-16T12:59:40.235Z,101258.34
2022-10-16T13:02:43.459Z,101263.78
2022-10-16T13:05:26.415Z,101265.94
2022-10-16T13:08:06.705Z,101267.91
2022-10-16T13:10:42.222Z,101267.69
2022-10-16T13:13:49.361Z,101277.88
2022-10-16T13:16:26.833Z,101287.00
2022-10-16T13:19:12.785Z,101286.94
2022-10-16T13:21:49.731Z,101301.41
2022-10-16T13:24:32.689Z,101296.19
2022-10-16T13:27:11.005Z,101299.41
2022-10-16T13:29:42.277Z,101307.19
2022-10-16T13:32:17.899Z,101317.19
2022-10-16T13:34:49.541Z,101319.72
2022-10-16T13:37:22.439Z,101321.47
2022-10-16T13:39:52.475Z,101334.53
2022-10-16T13:42:30.628Z,101343.06
2022-10-16T13:44:59.682Z,101336.06
2022-10-16T13:47:31.796Z,101340.03
2022-10-16T13:50:05.962Z,101346.03
2022-10-16T13:52:36.192Z,101336.47
2022-10-16T13:55:07.510Z,101346.16
2022-10-16T13:57:37.651Z,101352.25
2022-10-16T14:00:21.630Z,101348.94
2022-10-16T14:02:59.069Z,101350.78
2022-10-16T14:05:28.155Z,101355.84
2022-10-16T14:07:58.605Z,101357.13
2022-10-16T14:10:32.270Z,101367.53
2022-10-16T14:13:03.510Z,101368.16
2022-10-16T14:15:34.950Z,101365.22
2022-10-16T14:18:07.422Z,101377.84
2022-10-16T14:20:37.425Z,101373.47
2022-10-16T14:23:22.155Z,101386.94
2022-10-16T14:25:51.355Z,101385.66
2022-10-16T14:28:22.738Z,101379.03
2022-10-16T14:30:54.583Z,101384.13
2022-10-16T14:33:27.192Z,101398.44
2022-10-16T14:36:05.272Z,101401.34
2022-10-16T14:38:35.535Z,101405.81
2022-10-16T14:41:06.239Z,101420.28
2022-10-16T14:43:38.547Z,101417.69
2022-10-16T14:46:13.198Z,101413.88
2022-10-16T14:48:45.916Z,101417.13
2022-10-16T14:51:16.641Z,101417.03
2022-10-16T14:53:45.567Z,101408.84
2022-10-16T14:56:21.571Z,101425.53
2022-10-16T14:58:51.857Z,101419.91
2022-10-16T15:01:21.283Z,101430.00
2022-10-16T15:03:53.332Z,101425.03
2022-10-16T15:06:22.438Z,101432.91
2022-10-16T15:08:51.407Z,101434.72
2022-10-16T15:11:21.564Z,101441.59
2022-10-16T15:13:50.679Z,101448.63
2022-10-16T15:16:19.879Z,101442.34
2022-10-16T15:18:48.846Z,101448.53
2022-10-16T15:21:26.340Z,101442.34
2022-10-16T15:23:55.497Z,101453.16
2022-10-16T15:26:24.499Z,101449.16
2022-10-16T15:28:53.798Z,101456.94
2022-10-16T15:31:23.331Z,101465.34
2022-10-16T15:33:54.572Z,101466.09
2022-10-16T15:36:34.718Z,101458.59
2022-10-16T15:39:03.933Z,101459.03
2022-10-16T15:41:32.951Z,101464.75
2022-10-16T15:44:01.976Z,101468.53
2022-10-16T15:46:31.910Z,101468.75
2022-10-16T15:49:01.287Z,101474.56
2022-10-16T15:51:33.839Z,101484.72
2022-10-16T15:54:03.217Z,101478.50
2022-10-16T15:56:34.167Z,101488.41
2022-10-16T15:59:03.714Z,101488.28
2022-10-16T16:01:35.247Z,101489.59
2022-10-16T16:04:10.936Z,101495.00
2022-10-16T16:06:46.669Z,101505.03
2022-10-16T16:09:15.944Z,101501.88
2022-10-16T16:11:44.883Z,101511.91
2022-10-16T16:14:15.818Z,101517.81
2022-10-16T16:16:44.980Z,101515.03
2022-10-16T16:19:13.892Z,101514.44
2022-10-16T16:21:42.826Z,101513.47
2022-10-16T16:24:13.667Z,101525.41
2022-10-16T16:26:44.632Z,101518.88
2022-10-16T16:29:16.154Z,101526.19
2022-10-16T16:31:45.347Z,101533.53
2022-10-16T16:34:14.356Z,101545.38
2022-10-16T16:36:43.331Z,101541.22
2022-10-16T16:39:13.610Z,101560.59
2022-10-16T16:41:42.525Z,101556.47
2022-10-16T16:44:12.441Z,101558.91
2022-10-16T16:46:43.734Z,101570.09
2022-10-16T16:49:14.029Z,101577.69
2022-10-16T16:51:43.690Z,101574.69
2022-10-16T16:54:14.919Z,101583.56
2022-10-16T16:56:45.228Z,101585.53
2022-10-16T16:59:16.475Z,101590.41
2022-10-16T17:01:45.556Z,101602.97
2022-10-16T17:04:16.040Z,101611.09
2022-10-16T17:06:45.098Z,101612.78
2022-10-16T17:09:16.269Z,101607.03
2022-10-16T17:11:46.645Z,101611.00
2022-10-16T17:14:16.210Z,101618.09
2022-10-16T17:16:46.130Z,101621.47
2022-10-16T17:19:17.692Z,101625.66
2022-10-16T17:21:46.836Z,101625.09
2022-10-16T17:24:18.461Z,101625.69
2022-10-16T17:26:49.135Z,101634.06
2022-10-16T17:29:19.267Z,101638.63
2022-10-16T17:31:50.324Z,101633.97
2022-10-16T17:34:19.778Z,101629.31
2022-10-16T17:36:48.759Z,101638.38
2022-10-16T17:39:19.674Z,101649.84
2022-10-16T17:41:49.150Z,101664.16
2022-10-16T17:44:20.822Z,101662.56
2022-10-16T17:46:51.803Z,101668.97
2022-10-16T17:49:21.731Z,101674.06
2022-10-16T17:51:52.987Z,101684.81
2022-10-16T17:54:23.497Z,101685.03
2022-10-16T17:56:52.457Z,101693.13
2022-10-16T17:59:23.062Z,101694.38
2022-10-16T18:01:52.579Z,101693.69
2022-10-16T18:04:21.771Z,101706.09
2022-10-16T18:06:50.768Z,101705.88
2022-10-16T18:09:22.532Z,101707.28
2022-10-16T18:11:59.537Z,101710.91
2022-10-16T18:14:30.102Z,101710.75
2022-10-16T18:17:00.311Z,101706.94
2022-10-16T18:19:29.503Z,101713.25
2022-10-16T18:21:59.063Z,101714.22
2022-10-16T18:24:30.124Z,101710.69
2022-10-16T18:26:59.183Z,101706.47
2022-10-16T18:29:29.241Z,101718.56
2022-10-16T18:31:58.441Z,101719.09
2022-10-16T18:34:27.954Z,101734.31
2022-10-16T18:36:57.547Z,101737.47
2022-10-16T18:39:28.061Z,101740.41
2022-10-16T18:41:59.855Z,101744.63
2022-10-16T18:44:31.054Z,101748.59
2022-10-16T18:47:00.229Z,101747.16
2022-10-16T18:49:29.682Z,101756.03
2022-10-16T18:52:00.633Z,101754.56
2022-10-16T18:54:31.456Z,101754.16
2022-10-16T18:57:00.694Z,101762.03
2022-10-16T18:59:30.074Z,101760.69
2022-10-16T19:01:59.095Z,101756.28
2022-10-16T19:04:28.735Z,101765.34
2022-10-16T19:06:57.941Z,101758.41
2022-10-16T19:09:26.982Z,101760.28
2022-10-16T19:11:59.528Z,101765.75
2022-10-16T19:14:30.022Z,101764.56
2022-10-16T19:16:59.336Z,101770.75
2022-10-16T19:19:28.338Z,101767.44
2022-10-16T19:22:11.365Z,101767.81
2022-10-16T19:24:40.824Z,101766.97
2022-10-16T19:27:11.848Z,101770.84
2022-10-16T19:29:40.782Z,101784.25
2022-10-16T19:32:10.054Z,101786.75
2022-10-16T19:34:38.991Z,101795.66
2022-10-16T19:37:10.458Z,101787.38
2022-10-16T19:39:39.430Z,101791.78
2022-10-16T19:42:09.673Z,101787.91
2022-10-16T19:44:39.001Z,101795.97
2022-10-16T19:47:07.953Z,101803.66
2022-10-16T19:49:37.352Z,101815.50
2022-10-16T19:52:06.449Z,101803.00
2022-10-16T19:54:36.557Z,101798.69
2022-10-16T19:57:05.956Z,101801.50
2022-10-16T19:59:38.043Z,101804.84
2022-10-16T20:02:10.525Z,101806.47
2022-10-16T20:04:39.516Z,101807.56
2022-10-16T20:07:08.438Z,101815.72
2022-10-16T20:09:37.449Z,101804.38
2022-10-16T20:12:06.817Z,101804.72
2022-10-16T20:14:37.173Z,101814.69
2022-10-16T20:17:06.308Z,101816.97
2022-10-16T20:19:35.345Z,101813.16
2022-10-16T20:22:04.654Z,101810.75
2022-10-16T20:24:33.630Z,101817.19
2022-10-16T20:27:02.724Z,101819.38
2022-10-16T20:29:31.704Z,101829.84
2022-10-16T20:32:02.081Z,101829.06
2022-10-16T20:34:31.190Z,101822.78
2022-10-16T20:37:00.234Z,101833.56
2022-10-16T20:39:29.186Z,101847.41
2022-10-16T20:42:00.883Z,101852.31
2022-10-16T20:44:29.888Z,101836.59
2022-10-16T20:46:58.795Z,101843.44
2022-10-16T20:49:40.227Z,101841.25
2022-10-16T20:52:09.886Z,101833.03
2022-10-16T20:54:38.895Z,101830.28
2022-10-16T20:57:07.947Z,101833.97
2022-10-16T20:59:37.027Z,101847.63
2022-10-16T21:02:11.977Z,101844.78
2022-10-16T21:04:44.494Z,101838.16
2022-10-16T21:07:13.456Z,101831.34
2022-10-16T21:09:43.434Z,101841.25
2022-10-16T21:12:12.589Z,101846.94
2022-10-16T21:14:46.506Z,101844.78
2022-10-16T21:17:25.502Z,101848.13
2022-10-16T21:19:55.897Z,101861.97
2022-10-16T21:22:25.104Z,101867.59
2022-10-16T21:24:54.329Z,101874.59
2022-10-16T21:27:23.297Z,101885.25
2022-10-16T21:29:54.804Z,101891.97
2022-10-16T21:32:23.804Z,101889.25
2022-10-16T21:34:52.771Z,101891.59
2022-10-16T21:37:23.048Z,101899.59
2022-10-16T21:39:51.973Z,101892.66
2022-10-16T21:42:20.941Z,101871.91
2022-10-16T21:44:49.884Z,101887.00
2022-10-16T21:47:19.120Z,101894.50
2022-10-16T21:49:48.073Z,101893.22
2022-10-16T21:52:17.136Z,101888.91
2022-10-16T21:54:47.398Z,101888.25
2022-10-16T21:57:16.345Z,101885.72
2022-10-16T21:59:45.301Z,101887.22
2022-10-16T22:02:14.236Z,101881.47
2022-10-16T22:04:43.224Z,101881.94
2022-10-16T22:07:12.158Z,101890.53
2022-10-16T22:09:41.278Z,101884.50
2022-10-16T22:12:11.629Z,101893.22
2022-10-16T22:14:41.750Z,101897.31
2022-10-16T22:17:10.765Z,101894.06
2022-10-16T22:19:39.811Z,101892.38
2022-10-16T22:22:08.896Z,101890.69
2022-10-16T22:24:38.912Z,101898.53
2022-10-16T22:27:07.876Z,101894.44
2022-10-16T22:29:38.174Z,101896.13
2022-10-16T22:32:07.199Z,101893.66
2022-10-16T22:34:36.223Z,101887.38
2022-10-16T22:37:05.180Z,101886.16
2022-10-16T22:39:34.260Z,101876.94
2022-10-16T22:42:03.795Z,101864.91
2022-10-16T22:44:32.768Z,101857.66
2022-10-16T22:47:03.118Z,101858.53
2022-10-16T22:49:32.099Z,101867.03
2022-10-16T22:52:02.690Z,101854.13
2022-10-16T22:54:31.653Z,101862.91
2022-10-16T22:57:00.590Z,101860.09
2022-10-16T22:59:29.569Z,101868.88
2022-10-16T23:01:58.534Z,101887.69
2022-10-16T23:04:28.836Z,101885.63
2022-10-16T23:06:59.065Z,101889.72
2022-10-16T23:09:28.111Z,101884.94
2022-10-16T23:11:57.043Z,101877.75
2022-10-16T23:14:26.140Z,101874.00
2022-10-16T23:16:55.071Z,101864.22
2022-10-16T23:19:24.022Z,101858.06
2022-10-16T23:21:54.292Z,101856.38
2022-10-16T23:24:23.250Z,101844.97
2022-10-16T23:26:52.187Z,101857.09
2022-10-16T23:29:21.204Z,101837.81
2022-10-16T23:31:50.149Z,101843.59
2022-10-16T23:34:19.068Z,101855.06
2022-10-16T23:36:48.460Z,101844.88
2022-10-16T23:39:19.162Z,101842.88
2022-10-16T23:41:48.188Z,101850.75
2022-10-16T23:44:17.204Z,101857.13
2022-10-16T23:46:46.160Z,101841.69
2022-10-16T23:49:15.135Z,101837.13
2022-10-16T23:51:44.041Z,101830.28
2022-10-16T23:54:13.132Z,101813.63
2022-10-16T23:56:43.476Z,101804.91
2022-10-16T23:59:12.451Z,101799.75
